Washington, District of Columbia
Traffic Map
Current Weather Conditions
Washington, District of Columbia
Few Clouds
Few Clouds

Feels Like: 2°
Wind Chill: Ceiling: Unl
Heat Index: Visibility: 10mi
Dew Point: -1° Wind: 7mph
Humidity: 65% Direction: 330° (NNW)
Pressure: 29.99in Gusts: 0mph
Raw Report DataKDCA 010752Z 33006KT 10SM FEW250 05/M01 A2999 RMK AO2 SLP156 T00501011
Traffic Incident Summary
Active as of:
Severity:
Category:
InformationThere was an issue retrieving the traffic information for this location. Please try a different location or try again shortly.
Advertisements
Track Severe Weather on mobile